Time;durP1;ratioP1;P1;durP2;ratioP2;P2;SDS_P1;SDS_P2;PMS_P1;PMS_P2;Temp;Humidity;BMP_temperature;BMP_pressure;BME280_temperature;BME280_humidity;BME280_pressure;Samples;Min_cycle;Max_cycle;Signal;HPM_P1;HPM_P2
2022/10/02 00:02:34;;;;;;;25.00;5.57;;;;;;;-150.27;100.00;61272.81;5213776;28;20026;-75
2022/10/02 00:05:12;;;;;;;25.97;6.60;;;;;;;-150.27;100.00;61272.81;5212420;28;20037;-74
2022/10/02 00:07:48;;;;;;;27.40;5.13;;;;;;;-150.27;100.00;61272.81;5217178;28;20030;-74
2022/10/02 00:10:39;;;;;;;27.23;5.67;;;;;;;-150.27;100.00;61272.81;5213181;28;20112;-74
2022/10/02 00:13:19;;;;;;;24.50;6.47;;;;;;;-150.27;100.00;61272.81;5212245;28;20107;-76
2022/10/02 00:15:52;;;;;;;26.37;5.50;;;;;;;-150.27;100.00;61272.81;5217637;28;20046;-76
2022/10/02 00:18:30;;;;;;;33.37;6.03;;;;;;;-150.27;100.00;61272.81;5212765;28;20021;-76
2022/10/02 00:21:23;;;;;;;29.30;6.10;;;;;;;-150.27;100.00;61272.81;5216071;28;20029;-75
2022/10/02 00:23:59;;;;;;;32.67;6.27;;;;;;;-150.27;100.00;61272.81;5214501;28;20030;-75
2022/10/02 00:27:24;;;;;;;32.27;7.10;;;;;;;-150.27;100.00;61272.81;5214900;28;20505;-76
2022/10/02 00:29:58;;;;;;;28.13;5.17;;;;;;;-150.27;100.00;61272.81;5172330;28;20091;-75
2022/10/02 00:33:17;;;;;;;27.00;7.13;;;;;;;-150.27;100.00;61272.81;5221987;28;20033;-76
2022/10/02 00:36:09;;;;;;;33.47;6.17;;;;;;;-150.27;100.00;61272.81;5224737;28;20044;-76
2022/10/02 00:39:00;;;;;;;34.50;9.37;;;;;;;-150.27;100.00;61272.81;5218875;28;20640;-75
2022/10/02 00:41:43;;;;;;;32.13;7.43;;;;;;;-150.27;100.00;61272.81;5221457;28;20084;-75
2022/10/02 00:44:33;;;;;;;30.07;6.33;;;;;;;-150.27;100.00;61272.81;5220847;28;20036;-74
2022/10/02 00:47:34;;;;;;;21.73;5.40;;;;;;;-150.27;100.00;61272.81;5219849;28;20178;-75
2022/10/02 00:50:39;;;;;;;28.23;5.80;;;;;;;-150.27;100.00;61272.81;5213324;28;20026;-75
2022/10/02 00:53:22;;;;;;;;;;;;;;;-150.27;100.00;61272.81;5214372;28;20037;-75
2022/10/02 00:56:11;;;;;;;33.00;6.97;;;;;;;-150.27;100.00;61272.81;5214360;28;19913;-75
2022/10/02 00:59:20;;;;;;;26.87;6.57;;;;;;;-150.27;100.00;61272.81;5212468;28;20030;-75
2022/10/02 01:02:08;;;;;;;26.33;5.80;;;;;;;-150.27;100.00;61272.81;5202477;28;20451;-76
2022/10/02 01:04:40;;;;;;;28.37;6.50;;;;;;;-150.27;100.00;61272.81;5212487;28;20030;-76
2022/10/02 01:07:11;;;;;;;33.40;7.53;;;;;;;-150.27;100.00;61272.81;5259168;22;20042;-76
2022/10/02 01:09:43;;;;;;;23.50;5.87;;;;;;;-150.27;100.00;61272.81;5207999;28;20699;-76
2022/10/02 01:12:15;;;;;;;26.80;5.40;;;;;;;-150.27;100.00;61272.81;5211887;28;20038;-75
2022/10/02 01:14:46;;;;;;;25.97;6.07;;;;;;;-150.27;100.00;61272.81;5212407;28;20025;-75
2022/10/02 01:17:27;;;;;;;30.43;6.53;;;;;;;-150.27;100.00;61272.81;5211873;28;20026;-75
2022/10/02 01:20:03;;;;;;;29.40;7.00;;;;;;;-150.27;100.00;61272.81;5212668;28;20030;-75
2022/10/02 01:22:56;;;;;;;34.33;6.17;;;;;;;-150.27;100.00;61272.81;5212273;28;20380;-75
2022/10/02 01:25:27;;;;;;;38.83;6.43;;;;;;;-150.27;100.00;61272.81;5211952;28;20033;-75
2022/10/02 01:27:59;;;;;;;38.10;7.13;;;;;;;-150.27;100.00;61272.81;5213510;28;20022;-75
2022/10/02 01:30:32;;;;;;;32.10;5.57;;;;;;;-150.27;100.00;61272.81;5202208;28;20042;-75
2022/10/02 01:33:04;;;;;;;37.00;7.37;;;;;;;-150.27;100.00;61272.81;5208289;28;20026;-75
2022/10/02 01:35:37;;;;;;;27.20;6.30;;;;;;;-150.27;100.00;61272.81;5204450;28;20088;-74
2022/10/02 01:38:12;;;;;;;28.73;7.53;;;;;;;-150.27;100.00;61272.81;5210765;28;20042;-75
2022/10/02 01:40:43;;;;;;;32.00;5.93;;;;;;;-150.27;100.00;61272.81;5213124;28;20075;-75
2022/10/02 01:43:30;;;;;;;26.77;6.03;;;;;;;-150.27;100.00;61272.81;5210975;28;20469;-75
2022/10/02 01:46:34;;;;;;;28.07;6.63;;;;;;;-150.27;100.00;61272.81;5201370;28;20022;-75
2022/10/02 01:49:37;;;;;;;26.40;5.87;;;;;;;-150.27;100.00;61272.81;5214799;28;20420;-76
2022/10/02 01:52:30;;;;;;;34.30;6.83;;;;;;;-150.27;100.00;61272.81;5198441;28;20041;-75
2022/10/02 01:55:20;;;;;;;34.47;6.90;;;;;;;-150.27;100.00;61272.81;5209763;28;20500;-75
2022/10/02 01:58:00;;;;;;;32.97;7.23;;;;;;;-150.27;100.00;61272.81;5214107;28;20030;-75
2022/10/02 02:00:50;;;;;;;33.23;7.83;;;;;;;-150.27;100.00;61272.81;5215532;28;20037;-75
2022/10/02 02:03:46;;;;;;;35.40;6.90;;;;;;;-150.27;100.00;61272.81;5212059;28;20106;-75
2022/10/02 02:06:31;;;;;;;35.47;6.30;;;;;;;-150.27;100.00;61272.81;5214972;28;20052;-75
2022/10/02 02:09:08;;;;;;;;;;;;;;;-150.27;100.00;61272.81;5215143;28;20033;-75
2022/10/02 02:11:50;;;;;;;35.37;7.87;;;;;;;-150.27;100.00;61272.81;5215759;28;20081;-75
2022/10/02 02:14:29;;;;;;;31.03;7.77;;;;;;;-150.27;100.00;61272.81;5215614;28;20030;-74
2022/10/02 02:17:17;;;;;;;33.43;7.53;;;;;;;-150.27;100.00;61272.81;5215672;28;20034;-75
2022/10/02 02:20:01;;;;;;;34.70;7.03;;;;;;;-150.27;100.00;61272.81;5216056;28;20087;-75
2022/10/02 02:22:39;;;;;;;44.00;9.05;;;;;;;-150.27;100.00;61272.81;5203347;28;20443;-75
2022/10/02 02:25:28;;;;;;;40.87;8.33;;;;;;;-150.27;100.00;61272.81;5215556;28;20121;-75
2022/10/02 02:28:05;;;;;;;28.80;6.27;;;;;;;-150.27;100.00;61272.81;5213753;28;20500;-75
2022/10/02 02:30:41;;;;;;;30.07;6.20;;;;;;;-150.27;100.00;61272.81;5215023;28;20129;-75
2022/10/02 02:33:38;;;;;;;33.53;7.97;;;;;;;-150.27;100.00;61272.81;5218727;28;20037;-75
2022/10/02 02:36:15;;;;;;;30.83;7.37;;;;;;;-150.27;100.00;61272.81;5221278;28;20049;-76
2022/10/02 02:38:55;;;;;;;29.43;7.23;;;;;;;-150.27;100.00;61272.81;5206898;28;20031;-75
2022/10/02 02:41:29;;;;;;;33.33;5.80;;;;;;;-150.27;100.00;61272.81;5212745;28;20037;-75
2022/10/02 02:44:10;;;;;;;25.07;5.77;;;;;;;-150.27;100.00;61272.81;5213246;28;20045;-76
2022/10/02 02:47:03;;;;;;;31.10;5.97;;;;;;;-150.27;100.00;61272.81;5211139;28;20109;-75
2022/10/02 02:49:59;;;;;;;13.70;3.47;;;;;;;-150.27;100.00;61272.81;5215151;28;20128;-75
2022/10/02 02:52:40;;;;;;;14.53;4.23;;;;;;;-150.27;100.00;61272.81;5214206;28;20034;-75
2022/10/02 02:55:22;;;;;;;17.40;4.03;;;;;;;-150.27;100.00;61272.81;5214790;28;20030;-75
2022/10/02 02:58:16;;;;;;;16.50;3.83;;;;;;;-150.27;100.00;61272.81;5212994;28;20065;-75
2022/10/02 03:00:48;;;;;;;14.43;3.13;;;;;;;-150.27;100.00;61272.81;5210063;28;20036;-75
2022/10/02 03:03:19;;;;;;;17.13;4.33;;;;;;;-150.27;100.00;61272.81;5214834;28;20018;-76
2022/10/02 03:06:03;;;;;;;14.93;3.07;;;;;;;-150.27;100.00;61272.81;5214378;28;20046;-75
2022/10/02 03:08:36;;;;;;;14.73;4.60;;;;;;;-150.27;100.00;61272.81;5216303;28;20026;-75
2022/10/02 03:11:13;;;;;;;11.30;4.00;;;;;;;-150.27;100.00;61272.81;5216171;28;20096;-75
2022/10/02 03:14:11;;;;;;;13.80;3.17;;;;;;;-150.27;100.00;61272.81;5215135;28;20376;-75
2022/10/02 03:17:01;;;;;;;12.83;3.63;;;;;;;-150.27;100.00;61272.81;5215329;28;20588;-75
2022/10/02 03:19:47;;;;;;;12.00;2.47;;;;;;;-150.27;100.00;61272.81;5216019;28;20029;-76
2022/10/02 03:22:40;;;;;;;9.17;3.40;;;;;;;-150.27;100.00;61272.81;5215752;28;20472;-76
2022/10/02 03:25:20;;;;;;;11.07;2.13;;;;;;;-150.27;100.00;61272.81;5215816;28;20391;-75
2022/10/02 03:28:00;;;;;;;10.10;2.70;;;;;;;-150.27;100.00;61272.81;5214993;28;20034;-75
2022/10/02 03:30:33;;;;;;;10.00;2.27;;;;;;;-150.27;100.00;61272.81;5215164;28;20380;-75
2022/10/02 03:33:06;;;;;;;9.87;2.73;;;;;;;-150.27;100.00;61272.81;5211372;28;20037;-75
2022/10/02 03:35:38;;;;;;;13.30;2.80;;;;;;;-150.27;100.00;61272.81;5208855;28;20041;-74
2022/10/02 03:38:12;;;;;;;7.10;1.67;;;;;;;-150.27;100.00;61272.81;5203201;28;20030;-75
2022/10/02 03:40:43;;;;;;;;;;;;;;;-150.27;100.00;61272.81;5213097;28;20053;-74
2022/10/02 03:43:20;;;;;;;8.87;2.60;;;;;;;-150.27;100.00;61272.81;5208407;28;19937;-75
2022/10/02 03:45:51;;;;;;;10.73;3.20;;;;;;;-150.27;100.00;61272.81;5215091;28;20022;-75
2022/10/02 03:48:23;;;;;;;11.07;3.03;;;;;;;-150.27;100.00;61272.81;5215456;28;20022;-76
2022/10/02 03:50:54;;;;;;;10.97;2.93;;;;;;;-150.27;100.00;61272.81;5208583;28;20068;-75
2022/10/02 03:53:30;;;;;;;12.17;3.97;;;;;;;-150.27;100.00;61272.81;5215504;28;20048;-75
2022/10/02 03:56:09;;;;;;;12.23;3.63;;;;;;;-150.27;100.00;61272.81;5212866;28;20049;-75
2022/10/02 03:58:47;;;;;;;13.90;4.43;;;;;;;-150.27;100.00;61272.81;5211617;28;20074;-75
2022/10/02 04:01:52;;;;;;;17.37;4.90;;;;;;;-150.27;100.00;61272.81;5211819;28;20029;-75
2022/10/02 04:04:38;;;;;;;18.13;5.90;;;;;;;-150.27;100.00;61272.81;5171196;28;20645;-76
2022/10/02 04:07:15;;;;;;;21.77;8.10;;;;;;;-150.27;100.00;61272.81;5214796;28;20143;-75
2022/10/02 04:10:01;;;;;;;12.27;6.60;;;;;;;-150.27;100.00;61272.81;5214644;28;20037;-76
2022/10/02 04:12:39;;;;;;;16.03;6.90;;;;;;;-150.27;100.00;61272.81;5210936;28;20384;-76
2022/10/02 04:15:45;;;;;;;23.57;7.90;;;;;;;-150.27;100.00;61272.81;5196667;28;20581;-76
2022/10/02 04:18:26;;;;;;;21.90;8.60;;;;;;;-150.27;100.00;61272.81;5207362;28;20048;-75
2022/10/02 04:21:03;;;;;;;19.10;7.67;;;;;;;-150.27;100.00;61272.81;5209868;28;20119;-76
2022/10/02 04:23:42;;;;;;;18.63;8.30;;;;;;;-150.27;100.00;61272.81;5199545;28;20066;-76
2022/10/02 04:26:25;;;;;;;24.53;8.73;;;;;;;-150.27;100.00;61272.81;5214273;28;20109;-76
2022/10/02 04:29:07;;;;;;;15.70;7.50;;;;;;;-150.27;100.00;61272.81;5214939;28;20037;-76
2022/10/02 04:31:38;;;;;;;24.23;8.30;;;;;;;-150.27;100.00;61272.81;5214017;28;20026;-76
2022/10/02 04:34:12;;;;;;;22.33;8.23;;;;;;;-150.27;100.00;61272.81;5214411;28;20687;-76
2022/10/02 04:37:24;;;;;;;17.30;7.05;;;;;;;-150.27;100.00;61272.81;5212519;28;20176;-76
2022/10/02 04:40:31;;;;;;;22.10;7.90;;;;;;;-150.27;100.00;61272.81;5206527;28;20033;-76
2022/10/02 04:43:19;;;;;;;28.20;8.93;;;;;;;-150.27;100.00;61272.81;5206210;28;20586;-76
2022/10/02 04:46:18;;;;;;;25.07;9.23;;;;;;;-150.27;100.00;61272.81;5212531;28;20026;-76
2022/10/02 04:49:20;;;;;;;29.30;11.93;;;;;;;-150.27;100.00;61272.81;5211399;28;20034;-76
2022/10/02 04:52:22;;;;;;;24.97;11.23;;;;;;;-150.27;100.00;61272.81;5212390;28;20072;-76
2022/10/02 04:55:22;;;;;;;23.73;12.30;;;;;;;-150.27;100.00;61272.81;5206007;28;20120;-76
2022/10/02 04:57:59;;;;;;;27.10;12.70;;;;;;;-150.27;100.00;61272.81;5212509;28;20041;-76
2022/10/02 05:00:46;;;;;;;32.87;14.60;;;;;;;-150.27;100.00;61272.81;5212109;28;20061;-76
2022/10/02 05:03:43;;;;;;;27.40;13.53;;;;;;;-150.27;100.00;61272.81;5213080;28;20038;-76
2022/10/02 05:06:34;;;;;;;29.67;13.47;;;;;;;-150.27;100.00;61272.81;5165398;28;20050;-75
2022/10/02 05:09:22;;;;;;;37.80;15.57;;;;;;;-150.27;100.00;61272.81;5213135;28;20025;-75
2022/10/02 05:12:12;;;;;;;30.43;15.30;;;;;;;-150.27;100.00;61272.81;5207031;28;20030;-76
2022/10/02 05:15:06;;;;;;;29.43;14.53;;;;;;;-150.27;100.00;61272.81;5212713;28;20032;-76
2022/10/02 05:18:01;;;;;;;41.13;16.83;;;;;;;-150.27;100.00;61272.81;5202848;28;20076;-76
2022/10/02 05:20:32;;;;;;;42.17;17.42;;;;;;;-150.27;100.00;61272.81;5210391;28;20034;-76
2022/10/02 05:23:17;;;;;;;30.03;15.00;;;;;;;-150.27;100.00;61272.81;5209708;28;20484;-76
2022/10/02 05:26:14;;;;;;;35.10;16.77;;;;;;;-150.27;100.00;61272.81;5211553;28;20033;-75
2022/10/02 05:29:00;;;;;;;35.10;16.80;;;;;;;-150.27;100.00;61272.81;5213225;28;20029;-75
2022/10/02 05:32:07;;;;;;;36.63;17.67;;;;;;;-150.27;100.00;61272.81;5213309;28;20029;-76
2022/10/02 05:35:00;;;;;;;41.27;17.60;;;;;;;-150.27;100.00;61272.81;5210764;28;20038;-76
2022/10/02 05:37:51;;;;;;;34.63;18.23;;;;;;;-150.27;100.00;61272.81;5212082;28;20034;-77
2022/10/02 05:40:28;;;;;;;32.80;15.53;;;;;;;-150.27;100.00;61272.81;5213596;28;20026;-78
2022/10/02 05:43:05;;;;;;;35.37;16.00;;;;;;;-150.27;100.00;61272.81;5212519;28;20156;-77
2022/10/02 05:45:43;;;;;;;37.10;14.87;;;;;;;-150.27;100.00;61272.81;5211175;28;20042;-77
2022/10/02 05:48:26;;;;;;;36.57;14.70;;;;;;;-150.27;100.00;61272.81;5211066;28;20034;-78
2022/10/02 05:51:02;;;;;;;38.37;14.03;;;;;;;-150.27;100.00;61272.81;5212661;28;20034;-76
2022/10/02 05:53:56;;;;;;;36.37;13.47;;;;;;;-150.27;100.00;61272.81;5213019;28;20060;-72
2022/10/02 05:56:35;;;;;;;40.72;12.40;;;;;;;-150.27;100.00;61272.81;5198804;28;20033;-73
2022/10/02 05:59:24;;;;;;;37.93;11.50;;;;;;;-150.27;100.00;61272.81;5213662;28;20033;-74
2022/10/02 06:01:57;;;;;;;32.93;11.07;;;;;;;-150.27;100.00;61272.81;5210287;28;20081;-74
2022/10/02 06:04:42;;;;;;;34.80;10.27;;;;;;;-150.27;100.00;61272.81;5212681;28;20026;-74
2022/10/02 06:07:16;;;;;;;30.80;9.13;;;;;;;-150.27;100.00;61272.81;5202675;28;20406;-74
2022/10/02 06:09:59;;;;;;;27.98;9.48;;;;;;;-150.27;100.00;61272.81;5209020;28;20369;-75
2022/10/02 06:12:46;;;;;;;31.07;8.27;;;;;;;-150.27;100.00;61272.81;5201873;28;20022;-77
2022/10/02 06:15:41;;;;;;;36.87;8.27;;;;;;;-150.27;100.00;61272.81;5208027;28;20388;-76
2022/10/02 06:18:18;;;;;;;;;;;;;;;-150.27;100.00;61272.81;5213768;28;20057;-76
2022/10/02 06:20:54;;;;;;;30.00;9.13;;;;;;;-150.27;100.00;61272.81;5212088;28;19917;-75
2022/10/02 06:23:34;;;;;;;22.70;7.63;;;;;;;-150.27;100.00;61272.81;5213002;28;20022;-75
2022/10/02 06:26:10;;;;;;;30.90;8.87;;;;;;;-150.27;100.00;61272.81;5212274;28;20516;-75
2022/10/02 06:28:50;;;;;;;25.90;8.87;;;;;;;-150.27;100.00;61272.81;5212898;28;20022;-75
2022/10/02 06:31:47;;;;;;;29.53;8.10;;;;;;;-150.27;100.00;61272.81;5212571;28;20036;-75
2022/10/02 06:34:19;;;;;;;27.90;7.43;;;;;;;-150.27;100.00;61272.81;5200839;28;20025;-76
2022/10/02 06:37:17;;;;;;;28.60;8.23;;;;;;;-150.27;100.00;61272.81;5214952;28;20080;-74
2022/10/02 06:40:18;;;;;;;27.50;7.90;;;;;;;-150.27;100.00;61272.81;5214702;28;20034;-75
2022/10/02 06:43:23;;;;;;;26.57;7.43;;;;;;;-150.27;100.00;61272.81;5200724;28;20042;-75
2022/10/02 06:46:12;;;;;;;32.55;8.80;;;;;;;-150.27;100.00;61272.81;5214490;28;20500;-75
2022/10/02 06:48:59;;;;;;;29.47;7.37;;;;;;;-150.27;100.00;61272.81;5196317;28;20743;-74
2022/10/02 06:52:03;;;;;;;27.03;7.60;;;;;;;-150.27;100.00;61272.81;5209502;28;20046;-74
2022/10/02 06:54:52;;;;;;;24.90;8.37;;;;;;;-150.27;100.00;61272.81;5212747;28;20396;-74
2022/10/02 06:57:53;;;;;;;25.40;6.73;;;;;;;-150.27;100.00;61272.81;5212221;28;20030;-74
2022/10/02 07:00:25;;;;;;;24.83;7.83;;;;;;;-150.27;100.00;61272.81;5205832;28;20032;-75
2022/10/02 07:03:19;;;;;;;26.23;8.87;;;;;;;-150.27;100.00;61272.81;5215558;28;20037;-75
2022/10/02 07:06:12;;;;;;;22.03;9.37;;;;;;;-150.27;100.00;61272.81;5214940;28;20050;-75
2022/10/02 07:09:05;;;;;;;24.90;8.83;;;;;;;-150.27;100.00;61272.81;5203449;28;20133;-75
2022/10/02 07:11:47;;;;;;;30.17;10.33;;;;;;;-150.27;100.00;61272.81;5210863;28;20030;-75
2022/10/02 07:14:29;;;;;;;28.47;10.40;;;;;;;-150.27;100.00;61272.81;5206258;28;20036;-75
2022/10/02 07:17:23;;;;;;;31.13;9.33;;;;;;;-150.27;100.00;61272.81;5207415;28;20033;-75
2022/10/02 07:20:19;;;;;;;31.33;10.00;;;;;;;-150.27;100.00;61272.81;5206715;28;20045;-75
2022/10/02 07:22:50;;;;;;;23.87;10.33;;;;;;;-150.27;100.00;61272.81;5215395;28;20440;-75
2022/10/02 07:25:53;;;;;;;21.97;10.47;;;;;;;-150.27;100.00;61272.81;5213326;28;20068;-75
2022/10/02 07:28:41;;;;;;;18.83;9.70;;;;;;;-150.27;100.00;61272.81;5213907;28;20064;-75
2022/10/02 07:31:24;;;;;;;22.63;10.87;;;;;;;-150.27;100.00;61272.81;5214718;28;20495;-75
2022/10/02 07:34:11;;;;;;;19.87;10.10;;;;;;;-150.27;100.00;61272.81;5214083;28;20018;-75
2022/10/02 07:37:14;;;;;;;22.07;11.63;;;;;;;-150.27;100.00;61272.81;5213523;28;20026;-76
2022/10/02 07:40:35;;;;;;;18.83;10.47;;;;;;;-150.27;100.00;61272.81;5214622;28;20038;-76
2022/10/02 07:43:33;;;;;;;16.87;8.73;;;;;;;-150.27;100.00;61272.81;5114750;29;20040;-75
2022/10/02 07:46:15;;;;;;;23.53;10.97;;;;;;;-150.27;100.00;61272.81;5212840;28;20022;-75
2022/10/02 07:49:05;;;;;;;21.90;10.90;;;;;;;-150.27;100.00;61272.81;5212718;28;20381;-75
2022/10/02 07:51:49;;;;;;;18.67;9.53;;;;;;;-150.27;100.00;61272.81;5212640;28;20033;-75
2022/10/02 07:54:29;;;;;;;21.90;9.00;;;;;;;-150.27;100.00;61272.81;5208044;28;20021;-74
2022/10/02 07:57:22;;;;;;;17.93;9.30;;;;;;;-150.27;100.00;61272.81;5211723;28;20041;-75
2022/10/02 08:00:01;;;;;;;19.77;9.37;;;;;;;-150.27;100.00;61272.81;5209914;28;20480;-76
2022/10/02 08:02:45;;;;;;;19.13;8.63;;;;;;;-150.27;100.00;61272.81;5210084;28;20057;-75
2022/10/02 08:05:22;;;;;;;18.92;8.77;;;;;;;-150.27;100.00;61272.81;5212487;28;20692;-75
2022/10/02 08:07:59;;;;;;;18.73;8.77;;;;;;;-150.27;100.00;61272.81;5202156;28;20396;-75
2022/10/02 08:10:37;;;;;;;15.63;7.60;;;;;;;-150.27;100.00;61272.81;5211911;28;20030;-75
2022/10/02 08:13:31;;;;;;;19.87;9.33;;;;;;;-150.27;100.00;61272.81;5209348;28;20091;-75
2022/10/02 08:16:03;;;;;;;18.27;8.13;;;;;;;-150.27;100.00;61272.81;5203938;28;20038;-76
2022/10/02 08:18:39;;;;;;;17.23;9.47;;;;;;;-150.27;100.00;61272.81;5213507;28;20105;-72
2022/10/02 08:21:19;;;;;;;14.93;8.60;;;;;;;-150.27;100.00;61272.81;5214259;28;20033;-73
2022/10/02 08:24:15;;;;;;;18.90;8.93;;;;;;;-150.27;100.00;61272.81;5213940;28;20100;-75
2022/10/02 08:26:56;;;;;;;17.73;9.00;;;;;;;-150.27;100.00;61272.81;5210973;28;20127;-75
2022/10/02 08:29:46;;;;;;;20.23;10.60;;;;;;;-150.27;100.00;61272.81;5212196;28;20084;-75
2022/10/02 08:32:17;;;;;;;16.90;9.37;;;;;;;-150.27;100.00;61272.81;5206632;28;20022;-75
2022/10/02 08:34:48;;;;;;;19.70;10.00;;;;;;;-150.27;100.00;61272.81;5211072;28;20384;-75
2022/10/02 08:37:42;;;;;;;16.90;9.10;;;;;;;-150.27;100.00;61272.81;5209390;28;20026;-76
2022/10/02 08:41:07;;;;;;;15.45;9.80;;;;;;;-150.27;100.00;61272.81;5210300;28;20048;-74
2022/10/02 08:43:54;;;;;;;15.20;8.83;;;;;;;-150.27;100.00;61272.81;5186008;28;20058;-74
2022/10/02 08:46:57;;;;;;;20.50;8.43;;;;;;;-150.27;100.00;61272.81;5209607;28;20053;-74
2022/10/02 08:49:58;;;;;;;15.83;7.93;;;;;;;-150.27;100.00;61272.81;5210209;28;20018;-74
2022/10/02 08:52:54;;;;;;;12.80;7.30;;;;;;;-150.27;100.00;61272.81;5207298;28;20029;-74
2022/10/02 08:56:07;;;;;;;20.93;8.57;;;;;;;-150.27;100.00;61272.81;5208669;28;20116;-74
2022/10/02 08:59:03;;;;;;;16.30;6.90;;;;;;;-150.27;100.00;61272.81;5177291;28;20042;-74
2022/10/02 09:02:10;;;;;;;14.13;6.37;;;;;;;-150.27;100.00;61272.81;5212114;28;20417;-75
2022/10/02 09:04:55;;;;;;;16.47;6.93;;;;;;;-150.27;100.00;61272.81;5211370;28;20665;-75
2022/10/02 09:07:52;;;;;;;19.17;7.47;;;;;;;-150.27;100.00;61272.81;5200139;28;20464;-75
2022/10/02 09:11:01;;;;;;;15.13;6.10;;;;;;;-150.27;100.00;61272.81;5208532;28;20515;-78
2022/10/02 09:13:50;;;;;;;14.70;5.77;;;;;;;-150.27;100.00;61272.81;5205759;28;20048;-77
2022/10/02 09:16:49;;;;;;;14.30;5.50;;;;;;;-150.27;100.00;61272.81;5208408;28;20520;-77
2022/10/02 09:19:26;;;;;;;18.77;6.20;;;;;;;-150.27;100.00;61272.81;5205290;28;20034;-76
2022/10/02 09:22:01;;;;;;;17.67;7.07;;;;;;;-150.27;100.00;61272.81;5203846;28;20460;-77
2022/10/02 09:25:07;;;;;;;20.07;6.50;;;;;;;-150.27;100.00;61272.81;5206136;28;20022;-74
2022/10/02 09:27:41;;;;;;;;;;;;;;;-150.27;100.00;61272.81;5201376;28;20507;-75
2022/10/02 09:30:38;;;;;;;13.63;5.10;;;;;;;-150.27;100.00;61272.81;5210039;28;19910;-74
2022/10/02 09:33:47;;;;;;;13.80;4.10;;;;;;;-150.27;100.00;61272.81;5203577;28;20029;-75
2022/10/02 09:36:52;;;;;;;16.73;4.80;;;;;;;-150.27;100.00;61272.81;5198714;28;20811;-75
2022/10/02 09:39:46;;;;;;;16.83;5.57;;;;;;;-150.27;100.00;61272.81;5211261;28;20087;-75
2022/10/02 09:42:42;;;;;;;18.20;4.83;;;;;;;-150.27;100.00;61272.81;5208516;28;20488;-75
2022/10/02 09:45:57;;;;;;;14.33;4.10;;;;;;;-150.27;100.00;61272.81;5215983;28;20042;-74
2022/10/02 09:49:03;;;;;;;14.32;4.50;;;;;;;-150.27;100.00;61272.81;5214452;28;20033;-76
2022/10/02 09:51:41;;;;;;;13.47;4.00;;;;;;;-150.27;100.00;61272.81;5214512;28;20025;-76
2022/10/02 09:54:37;;;;;;;15.40;4.27;;;;;;;-150.27;100.00;61272.81;5207571;28;20068;-77
2022/10/02 09:57:29;;;;;;;18.77;5.17;;;;;;;-150.27;100.00;61272.81;5210208;28;20038;-77
2022/10/02 10:00:18;;;;;;;16.00;4.97;;;;;;;-150.27;100.00;61272.81;5209783;28;20030;-76
2022/10/02 10:03:14;;;;;;;16.37;4.67;;;;;;;-150.27;100.00;61272.81;5207021;28;20025;-77
2022/10/02 10:06:04;;;;;;;19.30;4.43;;;;;;;-150.27;100.00;61272.81;5207480;28;20568;-76
2022/10/02 10:09:03;;;;;;;13.27;3.67;;;;;;;-150.27;100.00;61272.81;5211215;28;20069;-76
2022/10/02 10:11:53;;;;;;;12.93;4.50;;;;;;;-150.27;100.00;61272.81;5220884;28;20623;-75
2022/10/02 10:14:46;;;;;;;21.10;4.63;;;;;;;-150.27;100.00;61272.81;5219127;28;20037;-75
2022/10/02 10:17:44;;;;;;;16.53;5.13;;;;;;;-150.27;100.00;61272.81;5219261;28;20029;-74
2022/10/02 10:20:49;;;;;;;22.47;5.23;;;;;;;-150.27;100.00;61272.81;5215310;28;20100;-75
2022/10/02 10:23:35;;;;;;;;;;;;;;;-150.27;100.00;61272.81;5215453;28;20113;-74
2022/10/02 10:26:37;;;;;;;14.47;4.40;;;;;;;-150.27;100.00;61272.81;5213016;28;19987;-74
2022/10/02 10:29:38;;;;;;;20.33;4.27;;;;;;;-150.27;100.00;61272.81;5221273;28;20049;-77
2022/10/02 10:32:45;;;;;;;19.63;4.10;;;;;;;-150.27;100.00;61272.81;5211060;28;20033;-75
2022/10/02 10:35:27;;;;;;;13.97;3.80;;;;;;;-150.27;100.00;61272.81;5211350;28;20028;-77
2022/10/02 10:38:33;;;;;;;19.23;5.20;;;;;;;-150.27;100.00;61272.81;5200805;28;20544;-76
2022/10/02 10:41:25;;;;;;;17.60;4.50;;;;;;;-150.27;100.00;61272.81;5214400;28;20030;-75
2022/10/02 10:44:07;;;;;;;12.43;4.17;;;;;;;-150.27;100.00;61272.81;5216621;28;20039;-76
2022/10/02 10:47:17;;;;;;;14.80;3.77;;;;;;;-150.27;100.00;61272.81;5222129;28;20116;-75
2022/10/02 10:50:07;;;;;;;16.43;3.83;;;;;;;-150.27;100.00;61272.81;5212311;28;20042;-78
2022/10/02 10:53:12;;;;;;;14.17;4.03;;;;;;;-150.27;100.00;61272.81;5209532;28;20049;-75
2022/10/02 10:56:20;;;;;;;16.83;4.25;;;;;;;-150.27;100.00;61272.81;5212230;28;20368;-75
2022/10/02 10:59:26;;;;;;;18.70;4.80;;;;;;;-150.27;100.00;61272.81;5212487;28;20172;-75
2022/10/02 11:02:01;;;;;;;13.97;3.70;;;;;;;-150.27;100.00;61272.81;5212614;28;20038;-76
2022/10/02 11:04:38;;;;;;;18.60;4.87;;;;;;;-150.27;100.00;61272.81;5203269;28;20370;-78
2022/10/02 11:07:22;;;;;;;14.07;4.37;;;;;;;-150.27;100.00;61272.81;5214269;28;20092;-75
2022/10/02 11:10:01;;;;;;;18.13;3.90;;;;;;;-150.27;100.00;61272.81;5213862;28;20157;-78
2022/10/02 11:12:32;;;;;;;18.50;5.03;;;;;;;-150.27;100.00;61272.81;5219605;28;20056;-77
2022/10/02 11:15:03;;;;;;;18.70;4.00;;;;;;;-150.27;100.00;61272.81;5219904;28;20025;-78
2022/10/02 11:17:47;;;;;;;17.13;4.63;;;;;;;-150.27;100.00;61272.81;5213636;28;20101;-78
2022/10/02 11:20:49;;;;;;;15.67;4.20;;;;;;;-150.27;100.00;61272.81;5212582;28;20029;-76
2022/10/02 11:23:36;;;;;;;18.57;4.27;;;;;;;-150.27;100.00;61272.81;5214172;28;20026;-78
2022/10/02 11:26:13;;;;;;;14.43;3.33;;;;;;;-150.27;100.00;61272.81;5210328;28;20726;-81
2022/10/02 11:29:04;;;;;;;13.33;3.47;;;;;;;-150.27;100.00;61272.81;5217459;28;20037;-76
2022/10/02 11:32:16;;;;;;;13.00;4.57;;;;;;;-150.27;100.00;61272.81;5212871;28;20595;-77
2022/10/02 11:35:09;;;;;;;15.27;4.27;;;;;;;-150.27;100.00;61272.81;5220845;28;20426;-76
2022/10/02 11:37:52;;;;;;;13.77;4.13;;;;;;;-150.27;100.00;61272.81;5212238;28;20066;-76
2022/10/02 11:40:37;;;;;;;14.37;3.90;;;;;;;-150.27;100.00;61272.81;5210892;28;20064;-76
2022/10/02 11:43:36;;;;;;;15.37;3.97;;;;;;;-150.27;100.00;61272.81;5199717;28;20029;-75
2022/10/02 11:46:40;;;;;;;12.50;3.90;;;;;;;-150.27;100.00;61272.81;5210217;28;20033;-76
2022/10/02 11:49:25;;;;;;;14.30;3.63;;;;;;;-150.27;100.00;61272.81;5208374;28;20060;-75
2022/10/02 11:52:15;;;;;;;15.07;3.63;;;;;;;-150.27;100.00;61272.81;5204670;28;20128;-76
2022/10/02 11:55:03;;;;;;;18.27;5.07;;;;;;;-150.27;100.00;61272.81;5203156;28;20038;-76
2022/10/02 11:57:53;;;;;;;16.00;4.40;;;;;;;-150.27;100.00;61272.81;5202173;28;20662;-76
2022/10/02 12:00:37;;;;;;;15.33;4.17;;;;;;;-150.27;100.00;61272.81;5204684;28;20046;-76
2022/10/02 12:03:35;;;;;;;15.55;4.40;;;;;;;-150.27;100.00;61272.81;5203053;28;20042;-71
2022/10/02 12:06:39;;;;;;;14.50;4.03;;;;;;;-150.27;100.00;61272.81;5203119;28;20042;-75
2022/10/02 12:09:17;;;;;;;18.10;4.47;;;;;;;-150.27;100.00;61272.81;5203772;28;20043;-78
2022/10/02 12:12:33;;;;;;;16.63;5.20;;;;;;;-150.27;100.00;61272.81;5201394;28;20095;-76
2022/10/02 12:15:23;;;;;;;16.47;5.57;;;;;;;-150.27;100.00;61272.81;5202446;28;20507;-76
2022/10/02 12:18:36;;;;;;;16.23;5.10;;;;;;;-150.27;100.00;61272.81;5204179;28;20088;-75
2022/10/02 12:27:55;;;;;;;20.87;7.40;;;;;;;-150.27;100.00;61272.81;5203527;28;20495;-75
2022/10/02 12:30:39;;;;;;;18.83;6.33;;;;;;;-150.27;100.00;61272.81;5202709;28;20577;-75
2022/10/02 12:33:20;;;;;;;17.58;5.85;;;;;;;-150.27;100.00;61272.81;5205467;28;20373;-75
2022/10/02 12:36:04;;;;;;;15.27;5.50;;;;;;;-150.27;100.00;61272.81;5204318;28;20042;-75
2022/10/02 12:39:06;;;;;;;16.73;5.95;;;;;;;-150.27;100.00;61272.81;5201829;28;20568;-75
2022/10/02 12:41:47;;;;;;;17.27;6.43;;;;;;;-150.27;100.00;61272.81;5199542;28;20050;-75